Smithville, MO (64089)

4:38 PM CDT on August 27, 2015 (GMT -0500)
Harborview | | Change Station
CLOSE
Current Station
Personal Weather Station
Location: Smithville, MO
Elevation: 955 ft
Nearby Weather Stations

Elev 955 ft 39.42 °N, 94.56 °W | Updated 5 minutes ago

Partly Cloudy
Partly Cloudy
75.4 °F
Feels Like 77 °F
N
4.7
Wind Variable Wind from ESE

Today
High -- | Low -- °F
--% Chance of Precip.
Yesterday
High -- | Low -- °F
Precip. -- in
6:41 AM 7:56 PM
Waxing Gibbous, 95% visible
Pressure 30.01 in
Visibility 10.0 miles
Clouds Scattered Clouds 5000 ft
Mostly Cloudy 12000 ft
Mostly Cloudy 25000 ft
Heat Index 77 °F
Dew Point 66 °F
Humidity 73%
Rainfall 0.60 in
Snow Depth Not available.
UV 4 out of 12
Pollen 9.00 out of 12
Air Quality Not available.
Flu Activity Not available.
METAR KMCI 272053Z 17013KT 10SM SCT050TCU BKN120 BKN250 23/17 A3003 RMK AO2 SLP160 OCNL LTGIC DSNT S TCU S-SW 60000 T02280172 58031
Pressure 30.01 in
Visibility 10.0 miles
Clouds Scattered Clouds 5000 ft
Mostly Cloudy 12000 ft
Mostly Cloudy 25000 ft
Heat Index 77 °F
Dew Point 66 °F
Humidity 73%
Rainfall 0.60 in
Snow Depth Not available.
UV 4 out of 12
Pollen 9.00 out of 12
Air Quality Not available.
Flu Activity Not available.
METAR KMCI 272053Z 17013KT 10SM SCT050TCU BKN120 BKN250 23/17 A3003 RMK AO2 SLP160 OCNL LTGIC DSNT S TCU S-SW 60000 T02280172 58031

10-Day Weather Forecast

×

Almanac

Astronomy

Aug. 27, 2015 Rise Set
Actual Time
Civil Twilight
Nautical Twilight
Astronomical Twilight
Moon
Length of Visible Light
Length of Day
Tomorrow will be .
, % of the Moon is Illuminated

Today's Extremes

State Highs State Lows

Community

WunderPhotos

Upload Photos

1,850,236 photos uploaded!

WunderBlogs® & News

Nearby

Air Quality

  Air Quality AQ Index Pollutant
Not available.

Snow Depth

Station Depth Elevation

Earthquake Activity

City Distance Mag. Time & Date
Minimum magnitude displayed is 2.5.

Coastal Water Temperatures

Place Temperature

Stations

Nearby Weather Stations

Station Location Temp. Windchill Dew Point Humidity Wind Precip. Elev Updated Type